Airfield :
LOGIN :

Register | Disclaimer

   EN    FR    IT 

 










Legend :    VFR   Marginal VFR   IFR   Intensive IFR   Very Intensive IFR
Visi :
Ceiling :
>= 8 km
>= 3000ft
5 to 8 km
1000 to 3000 ft
1500m to 5 km
500 to 1000 ft
800 to 1500m
200 to 500 ft
< 800m
< 200 ft
Symbols :   Thunderstorms  Fog  Heavy snow  Heavy precipitations  Wind > 20 kt
SIGMETs :     Misc.  Thunderstorms  Icing  Turbulence  Mountain Waves  Volcanic Ashes







- Airport Elevation : 286 ft
- IATA code : TRF


ENTO - Sandefjord , Torp

CURRENT METAR :
  • 201520Z 01010KT 9999 OVC011 M01/M03 Q1031

EXPIRED METARs :
  • 201450Z 02010KT 9999 OVC011 M01/M03 Q1031
  • 201420Z 02009KT 9999 SCT012 OVC018 M01/M03 Q1032
  • 201350Z 01010KT 9999 SCT012 OVC018 M01/M03 Q1032
  • 201320Z 36010KT 9999 SCT012 OVC018 M01/M03 Q1032
  • 201250Z 01010KT 9999 OVC019 M01/M03 Q1032

TAF COR TAF ENTO
Valid from the 20 at 12:00 until the 21 at 12:00 UTC


2012/2112 02012KT 9999 BKN020
TEMPO 2012/2112 BKN012
No reported NOTAMs for that airfield.
1 SIGMET reported for the Norway FIR (ENOR) :
 
Severe turbulence
ENBD SIGMET D04 VALID 201300/201700 ENVN
ENOR NORWAY FIR SEV TURB FCST WI N7040 E02340 - N7110 E02540 - N7100 E02900 - N7010 E03130 - N6900 E02325 - N7040 E02340 SFC/FL140 STNR WKN=



MET'MAP, your aeronautical weather chart ! - Copyright ORBIFLY December 2007 - Disclaimer

ORBIFLY MET'MAP TEAM :

Programming & Development : Alexandra Zaïnal
Concept & Development : Baudouin d'Aumeries
Co-Development & Prog : Marc-Olivier Méhu
Technical & hardware support : Manuel Goepfert

Contact : metmap@orbifly.com




SOURCES & CREDITS :

   NOAA